createdAt,value
2018-11-06T00:02:14.241Z,23.50
2018-11-06T00:04:54.788Z,23.63
2018-11-06T00:07:28.054Z,24.40
2018-11-06T00:10:00.647Z,23.17
2018-11-06T00:12:33.952Z,25.00
2018-11-06T00:15:08.775Z,22.93
2018-11-06T00:17:41.259Z,23.93
2018-11-06T00:20:14.695Z,23.70
2018-11-06T00:22:49.722Z,25.27
2018-11-06T00:25:23.851Z,22.03
2018-11-06T00:27:57.769Z,23.20
2018-11-06T00:30:31.176Z,23.10
2018-11-06T00:33:05.508Z,23.13
2018-11-06T00:35:38.322Z,23.43
2018-11-06T00:38:11.125Z,24.17
2018-11-06T00:40:43.687Z,24.53
2018-11-06T00:43:16.290Z,24.60
2018-11-06T00:45:49.888Z,25.40
2018-11-06T00:48:22.910Z,26.37
2018-11-06T00:50:56.416Z,24.60
2018-11-06T00:53:29.223Z,22.50
2018-11-06T00:56:02.761Z,23.60
2018-11-06T00:58:35.237Z,23.40
2018-11-06T01:01:08.187Z,24.97
2018-11-06T01:03:46.159Z,24.10
2018-11-06T01:06:19.509Z,22.70
2018-11-06T01:08:52.479Z,22.67
2018-11-06T01:11:25.098Z,22.03
2018-11-06T01:13:57.864Z,23.87
2018-11-06T01:16:33.114Z,24.00
2018-11-06T01:19:06.970Z,23.90
2018-11-06T01:21:39.934Z,24.67
2018-11-06T01:24:13.089Z,22.90
2018-11-06T01:26:45.922Z,22.80
2018-11-06T01:29:18.453Z,22.20
2018-11-06T01:31:51.397Z,23.83
2018-11-06T01:34:25.058Z,22.30
2018-11-06T01:36:58.676Z,24.90
2018-11-06T01:39:33.100Z,24.17
2018-11-06T01:42:05.814Z,24.00
2018-11-06T01:44:38.357Z,24.07
2018-11-06T01:47:11.387Z,27.13
2018-11-06T01:49:44.021Z,24.57
2018-11-06T01:52:16.598Z,24.50
2018-11-06T01:54:49.594Z,23.50
2018-11-06T01:57:22.849Z,24.70
2018-11-06T01:59:55.509Z,24.20
2018-11-06T02:02:28.581Z,23.63
2018-11-06T02:05:01.558Z,22.00
2018-11-06T02:07:34.212Z,22.80
2018-11-06T02:10:09.481Z,25.00
2018-11-06T02:12:43.062Z,23.47
2018-11-06T02:15:17.295Z,21.67
2018-11-06T02:17:53.510Z,21.90
2018-11-06T02:20:27.680Z,23.27
2018-11-06T02:23:01.903Z,22.97
2018-11-06T02:25:34.890Z,23.33
2018-11-06T02:28:07.743Z,25.17
2018-11-06T02:30:41.609Z,23.00
2018-11-06T02:33:14.462Z,24.17
2018-11-06T02:36:09.734Z,25.00
2018-11-06T02:38:43.178Z,23.03
2018-11-06T02:41:20.955Z,22.83
2018-11-06T02:43:53.522Z,23.13
2018-11-06T02:46:26.100Z,22.83
2018-11-06T02:48:59.000Z,21.97
2018-11-06T02:51:31.683Z,23.07
2018-11-06T02:54:04.434Z,21.70
2018-11-06T02:56:45.229Z,23.70
2018-11-06T02:59:17.721Z,23.33
2018-11-06T03:01:50.378Z,23.37
2018-11-06T03:04:23.318Z,22.83
2018-11-06T03:06:56.334Z,23.03
2018-11-06T03:09:28.866Z,22.33
2018-11-06T03:12:02.405Z,22.40
2018-11-06T03:14:35.194Z,21.03
2018-11-06T03:17:07.894Z,21.57
2018-11-06T03:19:40.879Z,20.20
2018-11-06T03:22:13.435Z,19.67
2018-11-06T03:24:46.021Z,18.33
2018-11-06T03:27:19.016Z,19.13
2018-11-06T03:29:51.502Z,18.33
2018-11-06T03:32:24.076Z,18.80
2018-11-06T03:34:57.132Z,21.20
2018-11-06T03:37:30.622Z,18.43
2018-11-06T03:40:06.073Z,17.20
2018-11-06T03:42:39.841Z,18.17
2018-11-06T03:45:14.310Z,18.50
2018-11-06T03:47:47.518Z,18.27
2018-11-06T03:50:20.492Z,16.50
2018-11-06T03:52:53.742Z,15.63
2018-11-06T03:55:26.202Z,15.67
2018-11-06T03:57:59.037Z,16.13
2018-11-06T04:00:31.524Z,15.93
2018-11-06T04:03:04.092Z,14.87
2018-11-06T04:05:36.948Z,15.73
2018-11-06T04:08:09.562Z,15.40
2018-11-06T04:10:42.757Z,15.80
2018-11-06T04:13:20.724Z,14.67
2018-11-06T04:15:53.905Z,15.23
2018-11-06T04:18:27.000Z,14.60
2018-11-06T04:20:59.777Z,14.20
2018-11-06T04:23:40.546Z,15.13
2018-11-06T04:26:13.590Z,13.97
2018-11-06T04:28:47.426Z,13.73
2018-11-06T04:31:20.154Z,14.23
2018-11-06T04:33:52.758Z,12.90
2018-11-06T04:36:25.702Z,13.20
2018-11-06T04:38:58.763Z,13.10
2018-11-06T04:41:31.490Z,13.33
2018-11-06T04:44:05.235Z,14.07
2018-11-06T04:46:37.863Z,12.97
2018-11-06T04:49:10.461Z,12.67
2018-11-06T04:51:45.037Z,13.33
2018-11-06T04:54:17.911Z,13.10
2018-11-06T04:56:52.013Z,12.47
2018-11-06T04:59:24.947Z,12.63
2018-11-06T05:01:57.700Z,12.80
2018-11-06T05:04:29.414Z,12.70
2018-11-06T05:07:03.774Z,12.67
2018-11-06T05:09:37.638Z,13.85
2018-11-06T05:12:10.670Z,14.15
2018-11-06T05:14:43.644Z,13.93
2018-11-06T05:17:17.487Z,13.10
2018-11-06T05:19:50.128Z,13.63
2018-11-06T05:22:24.378Z,13.80
2018-11-06T05:24:58.036Z,13.10
2018-11-06T05:27:30.885Z,13.33
2018-11-06T05:30:06.794Z,13.77
2018-11-06T05:32:40.630Z,13.57
2018-11-06T05:35:13.537Z,14.00
2018-11-06T05:37:46.022Z,13.73
2018-11-06T05:40:41.094Z,13.20
2018-11-06T05:43:15.145Z,13.20
2018-11-06T05:45:49.724Z,13.57
2018-11-06T05:48:23.457Z,11.77
2018-11-06T05:50:56.395Z,12.70
2018-11-06T05:53:31.224Z,12.53
2018-11-06T05:56:04.205Z,12.00
2018-11-06T05:58:37.555Z,11.03
2018-11-06T06:01:10.090Z,11.37
2018-11-06T06:03:44.340Z,11.20
2018-11-06T06:06:16.923Z,10.93
2018-11-06T06:08:50.675Z,10.33
2018-11-06T06:11:23.765Z,10.00
2018-11-06T06:13:56.289Z,9.20
2018-11-06T06:16:28.919Z,9.90
2018-11-06T06:19:02.993Z,8.43
2018-11-06T06:21:37.314Z,9.33
2018-11-06T06:24:09.826Z,8.87
2018-11-06T06:26:42.916Z,8.10
2018-11-06T06:29:15.461Z,7.67
2018-11-06T06:31:50.458Z,8.57
2018-11-06T06:34:23.062Z,8.52
2018-11-06T06:36:58.748Z,8.40
2018-11-06T06:39:31.295Z,9.03
2018-11-06T06:42:04.962Z,9.23
2018-11-06T06:44:37.698Z,9.33
2018-11-06T06:47:10.190Z,10.23
2018-11-06T06:49:43.486Z,10.43
2018-11-06T06:52:16.968Z,9.70
2018-11-06T06:54:50.051Z,9.13
2018-11-06T06:57:23.977Z,9.00
2018-11-06T06:59:58.886Z,8.37
2018-11-06T07:02:34.671Z,9.40
2018-11-06T07:05:12.584Z,9.20
2018-11-06T07:07:45.289Z,9.63
2018-11-06T07:10:20.849Z,9.33
2018-11-06T07:12:55.472Z,9.90
2018-11-06T07:15:30.010Z,8.90
2018-11-06T07:18:02.709Z,10.83
2018-11-06T07:20:35.278Z,11.80
2018-11-06T07:23:09.862Z,11.85
2018-11-06T07:25:42.926Z,10.87
2018-11-06T07:28:18.176Z,13.20
2018-11-06T07:30:50.859Z,12.13
2018-11-06T07:33:24.870Z,11.73
2018-11-06T07:35:59.039Z,11.77
2018-11-06T07:38:32.804Z,13.03
2018-11-06T07:41:05.876Z,13.17
2018-11-06T07:43:40.335Z,15.63
2018-11-06T07:46:29.792Z,15.50
2018-11-06T07:49:02.338Z,15.67
2018-11-06T07:51:37.887Z,17.07
2018-11-06T07:54:10.582Z,16.60
2018-11-06T07:56:46.671Z,15.70
2018-11-06T07:59:21.133Z,15.80
2018-11-06T08:01:53.786Z,16.17
2018-11-06T08:04:26.850Z,15.33
2018-11-06T08:07:20.211Z,15.77
2018-11-06T08:09:54.026Z,16.37
2018-11-06T08:12:27.586Z,14.93
2018-11-06T08:15:00.320Z,13.40
2018-11-06T08:17:35.226Z,14.37
2018-11-06T08:20:12.900Z,15.23
2018-11-06T08:22:48.332Z,15.60
2018-11-06T08:25:21.512Z,14.43
2018-11-06T08:27:56.359Z,15.17
2018-11-06T08:30:29.928Z,14.07
2018-11-06T08:33:09.833Z,14.50
2018-11-06T08:35:43.338Z,13.93
2018-11-06T08:38:16.538Z,13.63
2018-11-06T08:40:52.110Z,15.05
2018-11-06T08:43:27.266Z,14.73
2018-11-06T08:46:00.528Z,13.53
2018-11-06T08:48:37.299Z,13.53
2018-11-06T08:51:13.294Z,14.57
2018-11-06T08:53:51.714Z,13.77
2018-11-06T08:56:26.842Z,13.90
2018-11-06T08:59:01.502Z,13.10
2018-11-06T09:01:37.249Z,12.67
2018-11-06T09:04:10.788Z,11.73
2018-11-06T09:06:44.592Z,10.80
2018-11-06T09:09:17.853Z,12.27
2018-11-06T09:11:50.462Z,11.83
2018-11-06T09:14:24.467Z,10.97
2018-11-06T09:16:57.474Z,10.33
2018-11-06T09:19:31.074Z,10.37
2018-11-06T09:22:04.234Z,12.37
2018-11-06T09:24:38.208Z,13.17
2018-11-06T09:27:12.125Z,13.40
2018-11-06T09:29:46.435Z,13.70
2018-11-06T09:32:20.824Z,12.48
2018-11-06T09:34:54.664Z,10.57
2018-11-06T09:37:27.527Z,11.37
2018-11-06T09:40:04.530Z,11.57
2018-11-06T09:42:39.062Z,11.70
2018-11-06T09:45:17.600Z,11.23
2018-11-06T09:47:52.074Z,10.23
2018-11-06T09:50:28.678Z,10.60
2018-11-06T09:53:01.725Z,11.05
2018-11-06T09:55:36.767Z,10.67
2018-11-06T09:58:09.990Z,10.37
2018-11-06T10:00:45.482Z,10.03
2018-11-06T10:03:18.667Z,10.70
2018-11-06T10:05:56.334Z,10.83
2018-11-06T10:08:32.869Z,10.97
2018-11-06T10:11:08.270Z,10.47
2018-11-06T10:13:41.990Z,10.53
2018-11-06T10:16:16.364Z,9.80
2018-11-06T10:18:56.625Z,10.60
2018-11-06T10:21:32.273Z,9.93
2018-11-06T10:24:06.584Z,9.93
2018-11-06T10:26:43.366Z,9.53
2018-11-06T10:29:16.842Z,8.93
2018-11-06T10:31:50.969Z,7.53
2018-11-06T10:34:23.682Z,6.90
2018-11-06T10:36:56.429Z,7.03
2018-11-06T10:39:38.710Z,6.77
2018-11-06T10:42:12.643Z,6.87
2018-11-06T10:44:45.989Z,7.07
2018-11-06T10:47:25.053Z,8.18
2018-11-06T10:50:01.813Z,6.77
2018-11-06T10:52:35.945Z,6.97
2018-11-06T10:55:12.492Z,7.10
2018-11-06T10:57:55.034Z,6.57
2018-11-06T11:00:33.735Z,7.33
2018-11-06T11:03:11.997Z,6.93
2018-11-06T11:05:45.066Z,6.70
2018-11-06T11:08:19.112Z,6.90
2018-11-06T11:10:52.693Z,6.33
2018-11-06T11:13:27.858Z,7.77
2018-11-06T11:16:03.589Z,6.20
2018-11-06T11:18:38.604Z,5.83
2018-11-06T11:21:16.017Z,6.60
2018-11-06T11:23:54.110Z,4.97
2018-11-06T11:26:28.999Z,4.70
2018-11-06T11:29:02.714Z,4.45
2018-11-06T11:31:37.478Z,4.23
2018-11-06T11:34:11.442Z,3.90
2018-11-06T11:36:52.911Z,4.43
2018-11-06T11:39:32.609Z,4.27
2018-11-06T11:42:07.453Z,3.73
2018-11-06T11:44:46.527Z,5.18
2018-11-06T11:47:23.870Z,4.20
2018-11-06T11:49:58.761Z,4.50
2018-11-06T11:52:33.586Z,4.33
2018-11-06T11:55:07.250Z,4.20
2018-11-06T11:57:41.233Z,4.30
2018-11-06T12:00:18.837Z,4.40
2018-11-06T12:02:53.478Z,3.87
2018-11-06T12:05:30.647Z,4.10
2018-11-06T12:08:04.367Z,4.40
2018-11-06T12:10:38.571Z,4.45
2018-11-06T12:13:12.796Z,3.87
2018-11-06T12:15:51.162Z,3.77
2018-11-06T12:18:25.167Z,4.07
2018-11-06T12:21:00.323Z,3.83
2018-11-06T12:23:37.641Z,4.23
2018-11-06T12:26:14.278Z,4.43
2018-11-06T12:28:51.906Z,3.63
2018-11-06T12:31:29.739Z,3.87
2018-11-06T12:34:03.359Z,3.40
2018-11-06T12:36:42.670Z,3.23
2018-11-06T12:39:16.657Z,3.40
2018-11-06T12:41:49.989Z,3.53
2018-11-06T12:44:22.707Z,3.70
2018-11-06T12:46:56.809Z,3.33
2018-11-06T12:49:31.610Z,3.00
2018-11-06T12:52:13.756Z,3.17
2018-11-06T12:54:52.655Z,3.40
2018-11-06T12:57:28.744Z,2.90
2018-11-06T13:00:05.335Z,2.97
2018-11-06T13:02:39.348Z,3.00
2018-11-06T13:05:17.336Z,2.97
2018-11-06T13:07:52.007Z,2.80
2018-11-06T13:10:29.498Z,2.50
2018-11-06T13:13:08.534Z,3.00
2018-11-06T13:15:45.800Z,3.00
2018-11-06T13:18:20.767Z,3.10
2018-11-06T13:20:55.057Z,3.10
2018-11-06T13:23:31.777Z,2.60
2018-11-06T13:26:06.138Z,2.87
2018-11-06T13:28:41.851Z,2.87
2018-11-06T13:31:15.886Z,2.67
2018-11-06T13:33:55.543Z,2.93
2018-11-06T13:36:29.577Z,2.70
2018-11-06T13:39:09.554Z,2.97
2018-11-06T13:41:45.725Z,3.00
2018-11-06T13:44:24.507Z,2.30
2018-11-06T13:47:02.715Z,2.63
2018-11-06T13:49:39.018Z,2.97
2018-11-06T13:52:13.238Z,2.40
2018-11-06T13:54:48.151Z,2.30
2018-11-06T13:57:22.030Z,2.40
2018-11-06T13:59:59.086Z,2.67
2018-11-06T14:02:34.610Z,2.30
2018-11-06T14:05:09.809Z,3.00
2018-11-06T14:07:43.208Z,2.33
2018-11-06T14:10:17.700Z,2.50
2018-11-06T14:12:51.323Z,2.40
2018-11-06T14:15:27.459Z,2.33
2018-11-06T14:18:03.239Z,2.13
2018-11-06T14:20:56.513Z,2.50
2018-11-06T14:23:35.825Z,2.67
2018-11-06T14:26:10.984Z,2.42
2018-11-06T14:28:46.899Z,2.40
2018-11-06T14:31:21.919Z,2.40
2018-11-06T14:33:59.643Z,2.50
2018-11-06T14:36:34.647Z,2.27
2018-11-06T14:39:20.681Z,2.60
2018-11-06T14:41:54.671Z,2.67
2018-11-06T14:44:28.613Z,2.57
2018-11-06T14:47:03.210Z,2.60
2018-11-06T14:49:41.695Z,2.60
2018-11-06T14:52:28.079Z,2.17
2018-11-06T14:55:03.066Z,3.40
2018-11-06T14:57:36.056Z,2.80
2018-11-06T15:00:19.282Z,2.80
2018-11-06T15:02:56.768Z,2.40
2018-11-06T15:05:37.701Z,2.63
2018-11-06T15:08:12.924Z,2.90
2018-11-06T15:10:47.422Z,2.60
2018-11-06T15:13:27.088Z,2.70
2018-11-06T15:16:05.531Z,3.67
2018-11-06T15:18:43.728Z,2.97
2018-11-06T15:23:59.720Z,3.00
2018-11-06T15:26:40.929Z,3.37
2018-11-06T15:29:16.427Z,3.07
2018-11-06T15:31:52.386Z,3.20
2018-11-06T15:34:26.642Z,2.97
2018-11-06T15:36:59.569Z,3.30
2018-11-06T15:39:38.765Z,3.00
2018-11-06T15:42:17.056Z,2.92
2018-11-06T15:44:52.882Z,2.67
2018-11-06T15:47:27.474Z,2.70
2018-11-06T15:50:02.440Z,2.60
2018-11-06T15:52:38.727Z,2.50
2018-11-06T15:55:13.732Z,2.97
2018-11-06T15:57:54.770Z,2.67
2018-11-06T16:00:33.308Z,2.27
2018-11-06T16:03:07.666Z,2.87
2018-11-06T16:05:43.047Z,2.50
2018-11-06T16:08:21.499Z,2.30
2018-11-06T16:10:57.510Z,2.83
2018-11-06T16:13:34.396Z,2.57
2018-11-06T16:16:10.209Z,3.27
2018-11-06T16:18:45.506Z,3.60
2018-11-06T16:21:24.616Z,4.10
2018-11-06T16:24:00.052Z,3.00
2018-11-06T16:26:39.503Z,3.33
2018-11-06T16:29:19.412Z,3.40
2018-11-06T16:31:54.390Z,2.90
2018-11-06T16:34:30.373Z,2.83
2018-11-06T16:37:06.829Z,2.93
2018-11-06T16:39:51.207Z,3.23
2018-11-06T16:42:30.558Z,5.00
2018-11-06T16:45:18.333Z,3.97
2018-11-06T16:47:54.318Z,2.90
2018-11-06T16:50:33.931Z,3.93
2018-11-06T16:53:10.800Z,3.40
2018-11-06T16:55:48.810Z,3.10
2018-11-06T16:58:22.152Z,3.60
2018-11-06T17:01:01.845Z,3.10
2018-11-06T17:03:39.521Z,2.93
2018-11-06T17:06:21.714Z,3.47
2018-11-06T17:08:55.415Z,3.10
2018-11-06T17:11:30.602Z,3.37
2018-11-06T17:14:09.278Z,3.27
2018-11-06T17:16:46.366Z,3.47
2018-11-06T17:19:20.988Z,3.47
2018-11-06T17:21:56.518Z,3.13
2018-11-06T17:24:34.812Z,3.60
2018-11-06T17:27:10.279Z,3.50
2018-11-06T17:29:45.677Z,3.57
2018-11-06T17:32:20.939Z,3.83
2018-11-06T17:35:00.238Z,3.80
2018-11-06T17:37:37.884Z,4.07
2018-11-06T17:40:17.795Z,5.10
2018-11-06T17:42:56.355Z,3.83
2018-11-06T17:45:39.617Z,3.87
2018-11-06T17:48:19.506Z,4.03
2018-11-06T17:51:00.771Z,4.35
2018-11-06T17:53:37.253Z,4.03
2018-11-06T17:56:14.630Z,4.20
2018-11-06T17:58:49.413Z,4.23
2018-11-06T18:01:25.093Z,4.07
2018-11-06T18:04:02.646Z,4.57
2018-11-06T18:06:52.456Z,4.47
2018-11-06T18:09:33.050Z,4.33
2018-11-06T18:12:08.190Z,5.03
2018-11-06T18:14:57.431Z,4.63
2018-11-06T18:17:34.287Z,4.43
2018-11-06T18:20:13.929Z,4.70
2018-11-06T18:22:48.322Z,4.30
2018-11-06T18:25:32.693Z,4.83
2018-11-06T18:28:11.950Z,4.67
2018-11-06T18:30:47.497Z,5.37
2018-11-06T18:33:23.636Z,5.03
2018-11-06T18:36:07.218Z,5.80
2018-11-06T18:38:49.434Z,5.65
2018-11-06T18:41:27.102Z,5.65
2018-11-06T18:44:08.267Z,5.40
2018-11-06T18:46:42.547Z,5.87
2018-11-06T18:49:19.366Z,5.23
2018-11-06T18:51:54.423Z,5.30
2018-11-06T18:54:37.367Z,5.90
2018-11-06T18:57:16.283Z,5.80
2018-11-06T19:00:04.231Z,6.20
2018-11-06T19:02:48.506Z,5.80
2018-11-06T19:05:28.839Z,6.10
2018-11-06T19:08:10.699Z,6.40
2018-11-06T19:10:48.349Z,5.93
2018-11-06T19:13:23.898Z,6.87
2018-11-06T19:16:01.067Z,6.20
2018-11-06T19:18:37.849Z,6.37
2018-11-06T19:21:19.405Z,6.97
2018-11-06T19:24:00.824Z,7.20
2018-11-06T19:26:36.684Z,7.27
2018-11-06T19:29:23.609Z,7.80
2018-11-06T19:31:59.356Z,7.70
2018-11-06T19:34:42.625Z,8.35
2018-11-06T19:37:27.294Z,8.00
2018-11-06T19:40:01.631Z,8.57
2018-11-06T19:42:37.595Z,8.33
2018-11-06T19:45:18.898Z,7.90
2018-11-06T19:47:54.419Z,7.90
2018-11-06T19:50:47.342Z,7.93
2018-11-06T19:53:25.833Z,7.87
2018-11-06T19:56:01.943Z,8.87
2018-11-06T19:58:48.185Z,9.83
2018-11-06T20:01:31.783Z,9.00
2018-11-06T20:04:12.521Z,8.67
2018-11-06T20:06:47.665Z,8.20
2018-11-06T20:09:27.114Z,8.77
2018-11-06T20:12:08.610Z,8.60
2018-11-06T20:14:44.916Z,8.37
2018-11-06T20:17:24.583Z,8.47
2018-11-06T20:20:00.547Z,9.10
2018-11-06T20:22:41.253Z,9.07
2018-11-06T20:25:29.751Z,8.50
2018-11-06T20:28:06.732Z,8.90
2018-11-06T20:30:44.101Z,8.63
2018-11-06T20:33:20.703Z,9.10
2018-11-06T20:36:25.081Z,9.15
2018-11-06T20:39:11.518Z,8.77
2018-11-06T20:41:51.412Z,8.63
2018-11-06T20:44:30.342Z,8.43
2018-11-06T20:47:05.292Z,8.57
2018-11-06T20:52:40.193Z,8.17
2018-11-06T20:55:17.670Z,8.73
2018-11-06T20:57:57.214Z,8.90
2018-11-06T21:00:34.969Z,8.07
2018-11-06T21:03:21.837Z,10.10
2018-11-06T21:05:56.431Z,7.40
2018-11-06T21:08:31.659Z,8.90
2018-11-06T21:11:07.296Z,8.40
2018-11-06T21:13:47.804Z,7.83
2018-11-06T21:16:22.587Z,8.53
2018-11-06T21:19:01.447Z,8.60
2018-11-06T21:21:38.324Z,8.90
2018-11-06T21:24:13.747Z,8.70
2018-11-06T21:26:51.374Z,8.13
2018-11-06T21:29:29.659Z,8.03
2018-11-06T21:32:09.123Z,9.97
2018-11-06T21:34:48.368Z,8.23
2018-11-06T21:37:29.443Z,9.20
2018-11-06T21:40:07.994Z,9.13
2018-11-06T21:42:42.839Z,9.10
2018-11-06T21:45:18.158Z,8.50
2018-11-06T21:47:59.215Z,9.30
2018-11-06T21:50:33.171Z,9.37
2018-11-06T21:53:10.238Z,9.07
2018-11-06T21:55:46.214Z,9.13
2018-11-06T21:58:24.453Z,9.60
2018-11-06T22:01:09.470Z,9.53
2018-11-06T22:03:45.533Z,9.27
2018-11-06T22:06:21.078Z,9.10
2018-11-06T22:08:56.450Z,9.57
2018-11-06T22:11:33.030Z,9.70
2018-11-06T22:14:09.538Z,10.13
2018-11-06T22:16:45.071Z,9.40
2018-11-06T22:19:23.183Z,9.87
2018-11-06T22:22:00.514Z,9.80
2018-11-06T22:24:35.681Z,9.50
2018-11-06T22:27:11.634Z,9.97
2018-11-06T22:29:48.045Z,10.10
2018-11-06T22:32:22.549Z,9.70
2018-11-06T22:34:59.817Z,10.33
2018-11-06T22:37:34.422Z,9.47
2018-11-06T22:40:10.474Z,9.93
2018-11-06T22:42:48.917Z,11.30
2018-11-06T22:45:29.177Z,10.00
2018-11-06T22:48:04.774Z,10.43
2018-11-06T22:50:39.079Z,10.70
2018-11-06T22:53:14.137Z,10.17
2018-11-06T22:55:48.310Z,10.47
2018-11-06T22:58:23.971Z,10.47
2018-11-06T23:01:04.361Z,9.70
2018-11-06T23:03:41.392Z,10.00
2018-11-06T23:06:16.094Z,9.93
2018-11-06T23:08:53.299Z,10.05
2018-11-06T23:11:29.490Z,10.93
2018-11-06T23:14:02.783Z,10.27
2018-11-06T23:16:36.474Z,9.10
2018-11-06T23:19:09.285Z,9.73
2018-11-06T23:21:43.211Z,9.27
2018-11-06T23:24:21.498Z,9.40
2018-11-06T23:26:58.322Z,9.50
2018-11-06T23:29:32.095Z,9.57
2018-11-06T23:32:05.022Z,8.93
2018-11-06T23:34:40.276Z,8.57
2018-11-06T23:37:14.601Z,8.87
2018-11-06T23:39:48.658Z,8.50
2018-11-06T23:42:24.166Z,8.97
2018-11-06T23:44:57.737Z,9.20
2018-11-06T23:47:30.566Z,8.97
2018-11-06T23:50:03.809Z,9.27
2018-11-06T23:52:38.469Z,9.00
2018-11-06T23:55:12.621Z,9.30
2018-11-06T23:57:46.782Z,9.67
